Station History

Weather Underground - logo

Station Historical Data
 
Daily Summary for August 19, 2018 Units:  Metric    English   Both
« Previous Day
Next Day »
Daily Weekly Monthly Yearly Custom
  Current: High: Low: Average:
Temperature: 38.3 °C 38.6 °C 18.4 °C 27 °C
Dew Point: 14.2 °C 17.2 °C 10.6 °C 14.4 °C
Humidity: 24 % 78 % 20 % 51 %
Wind Speed: 1.9 km/h 7.4 km/h 0 km/h 1.9 km/h
Wind Gust: 0.2 km/h 3.9 km/h - -
Wind:ENE - - South
Pressure: 1008 hPa 1012.8 hPa 1008 hPa -
Precipitation: 0 mm      
Historical Graphs
 
 
Tabular Data for August 19, 2018
Time Temperature Dew Point Pressure Wind Wind Speed Wind Gust Humidity Rainfall Rate (Hourly)
00:04 24.6 °C 15.8 °C 1011.4 hPa Calm     58 % 0 mm
00:09 24.4 °C 16.4 °C 1011.4 hPa Calm     61 % 0 mm
00:14 24 °C 16.5 °C 1011.4 hPa Calm     63 % 0 mm
00:19 23.7 °C 16.7 °C 1011.4 hPa Calm     65 % 0 mm
00:24 23.3 °C 16.4 °C 1011.4 hPa Calm     65 % 0 mm
00:29 23.2 °C 16.4 °C 1011.4 hPa Calm     66 % 0 mm
00:34 23 °C 16.6 °C 1011.4 hPa Calm     67 % 0 mm
00:39 22.9 °C 16.3 °C 1011.4 hPa Calm     66 % 0 mm
00:44 22.9 °C 16.4 °C 1011.1 hPa Calm     67 % 0 mm
00:49 22.8 °C 16.6 °C 1011.1 hPa Calm     68 % 0 mm
00:54 22.7 °C 16.3 °C 1011.1 hPa Calm     67 % 0 mm
00:59 22.6 °C 16.2 °C 1011.1 hPa Calm     67 % 0 mm
01:04 22.5 °C 16.8 °C 1011.4 hPa Calm     70 % 0 mm
01:09 22.4 °C 16.4 °C 1011.4 hPa Calm     69 % 0 mm
01:14 22.3 °C 17.1 °C 1011.4 hPa Calm     72 % 0 mm
01:19 22.2 °C 17.2 °C 1011.4 hPa Calm     73 % 0 mm
01:24 22.1 °C 16.8 °C 1011.1 hPa Calm     72 % 0 mm
01:29 22 °C 16.7 °C 1011.1 hPa Calm     72 % 0 mm
01:34 22.1 °C 16.6 °C 1011.1 hPa Calm     71 % 0 mm
01:39 21.9 °C 16.7 °C 1011.4 hPa Calm     72 % 0 mm
01:44 21.7 °C 16.4 °C 1011.4 hPa Calm     72 % 0 mm
01:49 21.6 °C 16.1 °C 1011.4 hPa Calm     71 % 0 mm
01:54 21.6 °C 15.9 °C 1011.4 hPa Calm     70 % 0 mm
01:59 21.6 °C 15.6 °C 1011.1 hPa Calm     69 % 0 mm
02:04 21.6 °C 16.5 °C 1011.1 hPa Calm     73 % 0 mm
02:09 21.5 °C 16 °C 1011.1 hPa Calm     71 % 0 mm
02:14 21.4 °C 15.5 °C 1011.1 hPa Calm     69 % 0 mm
02:19 21.4 °C 15.7 °C 1011.1 hPa Calm     70 % 0 mm
02:24 21.4 °C 15.4 °C 1011.1 hPa Calm     69 % 0 mm
02:29 21.3 °C 15.6 °C 1011.1 hPa Calm     70 % 0 mm
02:34 21.2 °C 15.8 °C 1011.1 hPa Calm     71 % 0 mm
02:39 21.2 °C 15.9 °C 1011.1 hPa Calm     72 % 0 mm
02:44 21 °C 15.6 °C 1011.1 hPa Calm     71 % 0 mm
02:49 21.1 °C 15.4 °C 1011.1 hPa ENE 1.9 km/h   70 % 0 mm
02:54 21.2 °C 15.6 °C 1011.1 hPa Calm     70 % 0 mm
02:59 21.3 °C 15.4 °C 1011.1 hPa ENE 1.9 km/h 0.2 km/h 69 % 0 mm
03:04 21.3 °C 15.6 °C 1011.1 hPa Calm     70 % 0 mm
03:09 21.2 °C 15.6 °C 1011.1 hPa Calm     70 % 0 mm
03:14 21.1 °C 15.6 °C 1011.1 hPa Calm     71 % 0 mm
03:19 20.8 °C 15.6 °C 1011.1 hPa Calm     72 % 0 mm
03:24 20.6 °C 15.2 °C 1011.1 hPa Calm     71 % 0 mm
03:29 20.5 °C 15.3 °C 1011.1 hPa ENE 1.9 km/h   72 % 0 mm
03:34 20.4 °C 15.2 °C 1011.1 hPa ENE 1.6 km/h 0.2 km/h 72 % 0 mm
03:39 20.4 °C 14.9 °C 1011.1 hPa Calm     71 % 0 mm
03:44 20.3 °C 15.1 °C 1011.1 hPa Calm     72 % 0 mm
03:49 20.2 °C 15.4 °C 1011.1 hPa Calm     74 % 0 mm
03:54 20.1 °C 15.3 °C 1011.1 hPa Calm     74 % 0 mm
03:59 19.8 °C 15.3 °C 1011.1 hPa Calm     75 % 0 mm
04:04 19.7 °C 15.1 °C 1011.1 hPa Calm     75 % 0 mm
04:09 19.6 °C 15.2 °C 1011.1 hPa Calm     76 % 0 mm
04:14 19.5 °C 15.3 °C 1011.1 hPa Calm     77 % 0 mm
04:19 19.5 °C 15.2 °C 1011.1 hPa Calm     76 % 0 mm
04:24 19.5 °C 14.9 °C 1011.1 hPa East 1.9 km/h   75 % 0 mm
04:29 19.6 °C 15 °C 1011.1 hPa ESE 1.9 km/h   75 % 0 mm
04:34 19.5 °C 14.9 °C 1011.1 hPa Calm     75 % 0 mm
04:39 19.4 °C 14.8 °C 1011.1 hPa ESE 1.9 km/h 0.2 km/h 75 % 0 mm
04:44 19.4 °C 14.8 °C 1011.1 hPa Calm     75 % 0 mm
04:49 19.4 °C 14.9 °C 1011.1 hPa Calm     75 % 0 mm
04:54 19.4 °C 14.9 °C 1011.1 hPa Calm     75 % 0 mm
04:59 19.4 °C 14.8 °C 1011.1 hPa Calm     75 % 0 mm
05:04 19.4 °C 14.8 °C 1011.1 hPa Calm   0.2 km/h 75 % 0 mm
05:09 19.4 °C 14.8 °C 1011.1 hPa ESE 1.9 km/h   75 % 0 mm
05:14 19.3 °C 14.8 °C 1011.1 hPa ESE 1.9 km/h   75 % 0 mm
05:19 19.3 °C 14.9 °C 1011.4 hPa Calm     76 % 0 mm
05:24 19.2 °C 14.8 °C 1011.4 hPa Calm     76 % 0 mm
05:29 19.1 °C 14.7 °C 1011.4 hPa Calm     76 % 0 mm
05:34 19 °C 14.7 °C 1011.4 hPa Calm     76 % 0 mm
05:39 19 °C 14.7 °C 1011.7 hPa Calm     76 % 0 mm
05:44 19 °C 14.7 °C 1011.7 hPa Calm     76 % 0 mm
05:49 18.9 °C 14.6 °C 1011.4 hPa Calm     76 % 0 mm
05:54 18.9 °C 14.6 °C 1011.7 hPa Calm     76 % 0 mm
05:59 18.8 °C 14.5 °C 1011.7 hPa ESE 1.9 km/h   76 % 0 mm
06:04 18.7 °C 14.6 °C 1011.7 hPa Calm     77 % 0 mm
06:09 18.6 °C 14.5 °C 1011.7 hPa Calm     77 % 0 mm
06:14 18.6 °C 14.4 °C 1011.7 hPa Calm     77 % 0 mm
06:19 18.6 °C 14.4 °C 1011.7 hPa Calm     77 % 0 mm
06:24 18.5 °C 14.4 °C 1012.1 hPa Calm     77 % 0 mm
06:29 18.4 °C 14.6 °C 1012.1 hPa Calm     78 % 0 mm
06:34 18.4 °C 14.3 °C 1012.1 hPa Calm     77 % 0 mm
06:39 18.4 °C 14.3 °C 1012.1 hPa Calm     77 % 0 mm
06:44 18.6 °C 14.1 °C 1012.1 hPa Calm     75 % 0 mm
06:49 18.8 °C 14.1 °C 1012.1 hPa ESE 1.9 km/h   74 % 0 mm
06:54 18.9 °C 14.2 °C 1012.1 hPa Calm     74 % 0 mm
06:59 19.1 °C 14.3 °C 1012.1 hPa Calm     74 % 0 mm
07:04 19.2 °C 14.3 °C 1012.4 hPa Calm   0.2 km/h 73 % 0 mm
07:09 19.6 °C 14.4 °C 1012.4 hPa ESE 1.9 km/h 0.2 km/h 72 % 0 mm
07:14 19.8 °C 14.2 °C 1012.4 hPa Calm     70 % 0 mm
07:19 20.1 °C 14.4 °C 1012.4 hPa ESE 1.9 km/h 0.3 km/h 70 % 0 mm
07:24 20.4 °C 14.5 °C 1012.4 hPa Calm   0.5 km/h 69 % 0 mm
07:29 20.7 °C 14.3 °C 1012.4 hPa Calm     67 % 0 mm
07:34 21 °C 14.4 °C 1012.4 hPa ESE 1.9 km/h   66 % 0 mm
07:39 21.6 °C 14.7 °C 1012.4 hPa ESE 1.9 km/h 0.3 km/h 65 % 0 mm
07:44 22.2 °C 14.8 °C 1012.8 hPa SE 3.7 km/h 0.3 km/h 63 % 0 mm
07:49 22.7 °C 15.1 °C 1012.8 hPa ESE 1.9 km/h 0.3 km/h 62 % 0 mm
07:54 23.1 °C 15.1 °C 1012.8 hPa East 3.7 km/h   61 % 0 mm
07:59 23.4 °C 14.9 °C 1012.8 hPa SE 3.7 km/h 1 km/h 59 % 0 mm
08:04 23.8 °C 14.5 °C 1012.8 hPa SSE 1.9 km/h 0.6 km/h 56 % 0 mm
08:09 24.3 °C 14.7 °C 1012.8 hPa ESE 1.9 km/h 0.3 km/h 55 % 0 mm
08:14 24.7 °C 14.8 °C 1012.8 hPa SE 3.7 km/h 1.8 km/h 54 % 0 mm
08:19 24.8 °C 14.3 °C 1012.8 hPa SE 5.6 km/h 0.6 km/h 52 % 0 mm
08:24 25.3 °C 14.7 °C 1012.8 hPa SE 3.7 km/h 1 km/h 52 % 0 mm
08:29 25.7 °C 14.2 °C 1012.8 hPa South 1.9 km/h 1.1 km/h 49 % 0 mm
08:34 26 °C 14.1 °C 1012.8 hPa SE 3.7 km/h 0.6 km/h 48 % 0 mm
08:39 26.3 °C 14.1 °C 1012.8 hPa East 1.9 km/h 0.6 km/h 47 % 0 mm
08:44 26.8 °C 13.9 °C 1012.8 hPa Calm   1.3 km/h 45 % 0 mm
08:49 27.1 °C 13.8 °C 1012.8 hPa SSE 3.7 km/h 0.5 km/h 44 % 0 mm
08:54 27.4 °C 13.7 °C 1012.8 hPa SE 7.4 km/h 1.8 km/h 43 % 0 mm
08:59 27.7 °C 13.6 °C 1012.8 hPa South 5.6 km/h 1 km/h 42 % 0 mm
09:04 27.9 °C 13.1 °C 1012.8 hPa SSW 4.8 km/h 0.3 km/h 40 % 0 mm
09:09 28.3 °C 13.4 °C 1012.8 hPa SSW 7.4 km/h 3.5 km/h 40 % 0 mm
09:14 28.4 °C 14.3 °C 1012.4 hPa ENE 4.8 km/h 3.1 km/h 42 % 0 mm
09:19 28.7 °C 14.2 °C 1012.4 hPa SSE 3.7 km/h 1 km/h 41 % 0 mm
09:24 28.8 °C 12.7 °C 1012.4 hPa SSW 7.4 km/h 1 km/h 37 % 0 mm
09:29 28.9 °C 13.2 °C 1012.4 hPa South 7.4 km/h 1 km/h 38 % 0 mm
09:34 29 °C 12.4 °C 1012.4 hPa SSW 5.6 km/h 3.9 km/h 36 % 0 mm
09:39 29.1 °C 12.9 °C 1012.4 hPa ESE 5.6 km/h 1.1 km/h 37 % 0 mm
09:44 29.2 °C 13.1 °C 1012.4 hPa South 3.7 km/h 1.8 km/h 37 % 0 mm
09:49 29.3 °C 13.1 °C 1012.4 hPa SE 3.2 km/h 1.1 km/h 37 % 0 mm
09:54 29.4 °C 12.8 °C 1012.4 hPa SSW 5.6 km/h 2.4 km/h 36 % 0 mm
09:59 29.6 °C 12.9 °C 1012.4 hPa SSE 3.7 km/h 1 km/h 36 % 0 mm
10:04 29.8 °C 13.2 °C 1012.4 hPa SE 1.9 km/h 0.8 km/h 36 % 0 mm
10:09 30.2 °C 13.1 °C 1012.4 hPa SE 3.7 km/h 2.1 km/h 35 % 0 mm
10:14 30.6 °C 13.8 °C 1012.4 hPa SSE 1.9 km/h 0.8 km/h 36 % 0 mm
10:19 30.8 °C 14 °C 1012.4 hPa Calm     36 % 0 mm
10:24 31 °C 12.8 °C 1012.4 hPa SSW 6.4 km/h 3.7 km/h 33 % 0 mm
10:29 30.9 °C 13.7 °C 1012.4 hPa SSE 3.7 km/h 1.1 km/h 35 % 0 mm
10:34 31.2 °C 13.5 °C 1012.4 hPa East 3.7 km/h 0.8 km/h 34 % 0 mm
10:39 31.4 °C 13.2 °C 1012.4 hPa SE 3.7 km/h 1.8 km/h 33 % 0 mm
10:44 31.5 °C 13.7 °C 1012.4 hPa ESE 1.9 km/h 0.5 km/h 34 % 0 mm
10:49 31.8 °C 13.5 °C 1012.4 hPa WSW 3.7 km/h 1 km/h 33 % 0 mm
10:54 31.9 °C 13.6 °C 1012.1 hPa ENE 3.7 km/h   33 % 0 mm
10:59 32.1 °C 13.8 °C 1012.1 hPa SSW 1.9 km/h 0.8 km/h 33 % 0 mm
11:04 32.3 °C 14 °C 1012.1 hPa SW 3.7 km/h 0.8 km/h 33 % 0 mm
11:09 32.4 °C 13.6 °C 1012.1 hPa ENE 3.7 km/h 1.4 km/h 32 % 0 mm
11:14 32.6 °C 14.2 °C 1012.1 hPa SSW 3.7 km/h 0.3 km/h 33 % 0 mm
11:19 32.6 °C 13.2 °C 1012.1 hPa SSW 5.6 km/h 0.5 km/h 31 % 0 mm
11:24 32.7 °C 13.3 °C 1012.1 hPa East 6.4 km/h 1.9 km/h 31 % 0 mm
11:29 32.8 °C 14.8 °C 1012.1 hPa NNW 5.6 km/h 1.3 km/h 34 % 0 mm
11:34 33 °C 15.1 °C 1011.7 hPa NW 5.6 km/h 0.2 km/h 34 % 0 mm
11:39 33.3 °C 14.3 °C 1011.7 hPa North 3.7 km/h 1.1 km/h 32 % 0 mm
11:44 33.4 °C 14.9 °C 1011.7 hPa NE 1.9 km/h 0.3 km/h 33 % 0 mm
11:49 33.7 °C 13.2 °C 1011.7 hPa North 3.7 km/h 2.7 km/h 29 % 0 mm
11:54 33.8 °C 14.8 °C 1011.7 hPa West 5.6 km/h 0.6 km/h 32 % 0 mm
11:59 34 °C 13.4 °C 1011.4 hPa SSW 1.9 km/h 1.3 km/h 29 % 0 mm
12:04 34.2 °C 15.2 °C 1011.4 hPa SW 3.7 km/h 0.8 km/h 32 % 0 mm
12:09 34.3 °C 14.2 °C 1011.4 hPa SE 5.6 km/h 1.1 km/h 30 % 0 mm
12:14 34.4 °C 13.8 °C 1011.4 hPa WNW 1.9 km/h 0.5 km/h 29 % 0 mm
12:19 34.6 °C 14.4 °C 1011.1 hPa North 1.9 km/h 1.6 km/h 30 % 0 mm
12:24 34.6 °C 14.4 °C 1011.1 hPa Calm   1 km/h 30 % 0 mm
12:29 34.6 °C 14.9 °C 1011.1 hPa WNW 3.7 km/h 0.3 km/h 31 % 0 mm
12:34 34.8 °C 15.7 °C 1011.1 hPa NNW 3.7 km/h 0.8 km/h 32 % 0 mm
12:39 35 °C 15.3 °C 1011.1 hPa WNW 1.9 km/h 0.2 km/h 31 % 0 mm
12:44 35.1 °C 14.4 °C 1011.1 hPa NNW 1.9 km/h   29 % 0 mm
12:49 34.8 °C 12.5 °C 1011.1 hPa NW 3.7 km/h 1.3 km/h 26 % 0 mm
12:54 34.5 °C 14.4 °C 1010.7 hPa NW 5.6 km/h 1 km/h 30 % 0 mm
12:59 34.6 °C 13.4 °C 1010.7 hPa Calm     28 % 0 mm
13:04 35.1 °C 13.8 °C 1010.7 hPa ESE 4.8 km/h 1.9 km/h 28 % 0 mm
13:09 35.4 °C 15.2 °C 1010.7 hPa SE 1.9 km/h 0.2 km/h 30 % 0 mm
13:14 35.6 °C 11.9 °C 1010.7 hPa East 3.7 km/h 0.6 km/h 24 % 0 mm
13:19 35.8 °C 11.4 °C 1010.4 hPa SE 1.9 km/h 0.2 km/h 23 % 0 mm
13:24 36.2 °C 13.1 °C 1010.4 hPa NW 1.9 km/h 0.6 km/h 25 % 0 mm
13:29 36.2 °C 11.1 °C 1010.4 hPa SE 3.7 km/h 0.6 km/h 22 % 0 mm
13:34 36.6 °C 11.4 °C 1010.4 hPa West 3.7 km/h 2.1 km/h 22 % 0 mm
13:39 36.8 °C 12.3 °C 1010.4 hPa NE 3.7 km/h 0.3 km/h 23 % 0 mm
13:44 36.9 °C 12.4 °C 1010.4 hPa SW 3.7 km/h 1.4 km/h 23 % 0 mm
13:49 37.1 °C 11.1 °C 1010 hPa NW 3.7 km/h 0.8 km/h 21 % 0 mm
13:54 37.3 °C 14.6 °C 1010 hPa South 3.7 km/h 0.6 km/h 26 % 0 mm
13:59 37.6 °C 12.2 °C 1010 hPa SW 1.6 km/h 1 km/h 22 % 0 mm
14:04 37.7 °C 13.7 °C 1010 hPa NNW 1.9 km/h   24 % 0 mm
14:09 37.6 °C 11.5 °C 1010 hPa WNW 3.7 km/h 1.1 km/h 21 % 0 mm
14:14 37.4 °C 12.1 °C 1009.7 hPa NNE 5.6 km/h 1.1 km/h 22 % 0 mm
14:19 37.3 °C 13.9 °C 1009.7 hPa SSE 1.9 km/h 0.2 km/h 25 % 0 mm
14:24 37.3 °C 12.7 °C 1009.7 hPa NW 4.8 km/h 1.3 km/h 23 % 0 mm
14:29 37.4 °C 13.4 °C 1009.7 hPa NNE 1.9 km/h   24 % 0 mm
14:34 37.4 °C 12.8 °C 1009.4 hPa NW 4.8 km/h 1.4 km/h 23 % 0 mm
14:39 37.4 °C 14.1 °C 1009.4 hPa ESE 1.9 km/h 0.2 km/h 25 % 0 mm
14:44 37.9 °C 13.8 °C 1009.4 hPa WSW 1.9 km/h   24 % 0 mm
14:49 37.7 °C 13.7 °C 1009 hPa NW 3.2 km/h 1.6 km/h 24 % 0 mm
14:54 37.3 °C 12.7 °C 1009 hPa NNW 1.9 km/h 1.4 km/h 23 % 0 mm
14:59 37.3 °C 12.7 °C 1009 hPa NW 3.7 km/h   23 % 0 mm
15:04 37.4 °C 11.4 °C 1009 hPa NNW 3.7 km/h 1.3 km/h 21 % 0 mm
15:09 37.4 °C 12.1 °C 1009 hPa NW 3.7 km/h 1.3 km/h 22 % 0 mm
15:14 37.3 °C 10.6 °C 1008.7 hPa WNW 3.7 km/h 0.5 km/h 20 % 0 mm
15:19 37.8 °C 11.7 °C 1008.7 hPa Calm     21 % 0 mm
15:24 38.1 °C 12.6 °C 1008.7 hPa South 1.9 km/h 0.6 km/h 22 % 0 mm
15:29 38.3 °C 12.1 °C 1008.7 hPa NW 1.9 km/h 0.5 km/h 21 % 0 mm
15:34 38.5 °C 13 °C 1008.4 hPa SSE 3.7 km/h 0.6 km/h 22 % 0 mm
15:39 38.6 °C 12.3 °C 1008.4 hPa NNW 1.9 km/h 0.2 km/h 21 % 0 mm
15:44 38.4 °C 12.9 °C 1008.4 hPa NW 3.7 km/h 1.4 km/h 22 % 0 mm
15:49 38.2 °C 13.4 °C 1008 hPa Calm   0.3 km/h 23 % 0 mm
15:54 38.4 °C 12.9 °C 1008 hPa NW 3.7 km/h 1 km/h 22 % 0 mm
15:59 38.1 °C 13.4 °C 1008 hPa NW 1.9 km/h 0.6 km/h 23 % 0 mm
16:04 38.3 °C 14.2 °C 1008 hPa ENE 1.9 km/h 0.2 km/h 24 % 0 mm
Park Place, Exeter, Tulare County, California, USA
Compliments of Weather Underground - 2.25 mb